< < Back
Terminal Aerodrome Forecast


Current Version              Previous Versions:   1  2  3  4  5  6  7  8  9  

Terminal Aerodrome Forecast

184
FTUS44 KMOB 232300
TAFPNS
TAF
KPNS 232320Z 2400/2424 21010KT P6SM SKC
     FM240600 00000KT 4SM BR SKC
      TEMPO 2409/2412 1SM BR
     FM241300 12004KT P6SM FEW040 SCT250=

Latest METAR

440
SAUS70 KWBC 240700 RRE
MTRPNS
METAR KPNS 240653Z AUTO 14003KT 6SM BR BKN065 19/17 A2991 RMK AO2 SLP132
T01890172


USA.gov is the U.S. government's official web portal to all federal, state and local government web resources and services.